Terminal Aerodrome Forecast
Issued by NWS

Home | Current Version | Previous Version | Text Only | Print | Product List | Glossary On
Versions: 1 2 3 4 5 6 7 8 9 10 11 12 13 14 15 16 17 18 19 20
000
FTUS43 KIND 302000 AAA
TAFHUF
TAF AMD
KHUF 302031Z 3021/3118 20010KT P6SM VCTS SCT035CB BKN060
      TEMPO 3021/3101 22015G25KT 2SM TSRA OVC025CB
     FM310100 20010KT P6SM VCTS SCT025CB OVC050
      TEMPO 3101/3105 2SM RA BKN015
     FM310600 35010KT 3SM BR OVC015
     FM311000 32009KT 3SM BR OVC007
     FM311500 35010G18KT P6SM OVC007=

USA.gov is the U.S. government's official web portal to all federal, state and local government web resources and services.